Relevés horaires Beauvechain (Belgique)


Relevés horaires à Beauvechain - Mardi 03 Juill. 2018
Heure UTC1 Température [°C] Vent [km/h] Hum. [%] Pres.4 [hPa] Visi. [Km] Nébu. [octa] Préc.5 [mm] Cond.
2m. Res. Ros. Dir.2 Vit. Moy. Raf.3
23:00 20.0 20.0 10.9 NE 3.7 -- 5.6 56 1015.2(0.5/3h) 20 -- -- --
22:00 21.5 21.5 11.2 NNO 1.9 -- 5.6 52 1015.2(0.5/3h) 20 -- -- --
21:00 23.9 23.9 10.1 NNO 1.9 -- 5.6 42 1014.8(0.4/3h) 20 -- -- --
20:00 24.7 24.7 9.9 NNO 1.9 -- 3.7 39 1014.3(0.0/3h) 20 -- -- --
19:00 25.9 25.9 10.6 NNO 1.9 -- 5.6 38 1014.3(-0.5/3h) 20 -- -- --
18:00 27.2 27.2 9.5 ENE 3.7 -- 11.1 33 1014.2(-0.6/3h) 20 -- -- --
17:00 28.2 28.2 8.6 NE 5.6 -- 11.1 29 1014.2(-0.8/3h) 20 -- -- --
16:00 28.1 28.1 8.7 NNO 1.9 -- 9.3 30 1014.7(-0.8/3h) 20 6/8 -- --
15:00 28.3 28.3 9.2 ESE 3.7 -- 11.1 30 1014.8(-1.0/3h) 20 2/8 -- --
14:00 28.6 28.6 8.4 ESE 5.6 -- 11.1 28 1015.1(-1.1/3h) 20 2/8 -- --
13:00 28.0 28.0 7.9 NNO 1.9 -- 9.3 28 1015.6(-0.8/3h) 20 2/8 -- --
12:00 27.8 27.8 8.5 ENE 3.7 -- 11.1 30 1016(-0.6/3h) 20 2/8 -- --
11:00 25.9 25.9 7.4 ENE 3.7 -- 9.3 31 1016.5(0.0/3h) 20 2/8 -- --
10:00 22.9 22.9 10.6 NE 3.7 -- 7.4 46 1016.7(0.0/3h) 20 3/8 -- --
09:00 20.8 20.8 10.1 NE 3.7 -- 7.4 50 1017(0.0/3h) 20 4/8 -- --
08:00 20.1 20.1 9.6 NE 3.7 -- 7.4 51 1016.7(0.1/3h) 20 1/8 -- --
07:00 18.1 18.1 7.3 ENE 5.6 -- 7.4 49 1017(0.4/3h) 20 1/8 -- --
06:00 16.2 16.2 6.7 ENE 5.6 -- 7.4 53 1017.2(0.9/3h) 20 1/8 -- --
05:00 14.4 14.4 5.9 NE 3.7 -- 7.4 57 1016.8(0.5/3h) 20 1/8 -- --
04:00 13.2 13.2 5.1 ENE 3.7 -- 5.6 58 1016.7(0.0/3h) 20 1/8 -- --
03:00 14.3 14.3 4.9 NE 5.6 -- 5.6 53 1016.2(-0.4/3h) 20 -- -- --
02:00 15.1 15.1 5.8 NE 3.7 -- 5.6 54 1016.2(-0.3/3h) 20 -- -- --
01:00 15.7 15.7 6.4 NE 3.7 -- 5.6 54 1016.6(0.2/3h) 20 -- -- --
00:00 16.5 16.5 6.5 ENE 3.7 -- 11.1 52 1016.7(0.7/3h) 20 -- -- --

1 Coordinated Universal Time. Actuellement il est 03:00 locale et 02:00 UTC.

2 Le vent souffle depuis la direction indiquée vers la direction oposée.

3 Les rafales max. sont disponible 40 min après l'heure du relevé.

4 Pour les stations d'altitude (plus de 600m) le géopotentiel du niveau le plus proche de la pression obligatoire est indiqué.

5 Les stations disposant d'un diffuseur peuvent indiquer "trace". Cela signifie que des précipitations ont touchés le sol mais que la quantité est inférieure à 0.1 mm.

Récapitulatif de la journée
Température [°C] Vent [km/h] Ensoleillement4 [h] Precipitations totale5 [mm] Pression [Hpa]
Min1 Max.2 Moy.3 Max. Min Max.
13.2 29.1 0 11.1 0 h 0 min 0 1014.2 1017.2

1 Température minimale relevée entre 18:00 UTC la veille et 18:00 UTC le jour donné.

2 Température maximale relevée entre 06:00 UTC le jour donné et 06:00 UTC le lendemain.

3 Vent moyen de la journée basé sur les relevés horaires.

4 Ensoleillement en heures relevé entre 06:00 UTC la veille et 06:00 UTC le jour donné.

5 Précipitations totales tombées entre 06:00 UTC la jour donné et 06:00 UTC le lendemain.

Graphiques horaires